map of YBR home
YBR - Airport
Location
City:  Brandon, Manitoba, Canada
Name:Brandon Municipal Airport
Old (Alt.):McGill Field
ICAO:CYBR
IATA:YBR

Details
Type:Airport (Airfield)
Use:Public/Civil
Latitude:4954'36"N (49.910000)
Longitude:9957'08"W (-99.952221)
Elevation:1343 ft (409 m)
Variation:5.24E (WMM2015 magnetic declination)
-0.09 annual change
Runways:2
Longest:6510 ft (1984 m), paved

Time
Time Zone:UTC-6 (DST-5)
Local Time:

Weather
METAR:CYBR 161600Z 30017KT 15SM FEW250 M06/M11 A3011 RMK CI2 PRESRR SLP223
TAF:CYBR 161138Z 1612/1624 28020G30KT P6SM SKC
BECMG 1620/1622 30012G22KT
RMK NXT FCST BY 161800Z

Related Locations
Nearby:
Farthest:YWKS: 10834 mi / 17436 km
Wilkins Runway (Casey), Upper Peterson Glacier, AQ

Find:

   beyond  
but within

Other Information
Maps:
NOTAMs:
Links:
Sources:

  
  • flag of Canada
  • flag of Manitoba
  

Airport Diagram

Airport diagram for YBR

Airport diagram PDF

Sectional Chart

Flight Planning
at skyvector.com

Satellite Image

Google Maps Satellite view

 

Copyright © 2004-2018 Karl L. Swartz. All rights reserved.
The Great Circle Mapper name and logo are trademarks of the Great Circle Mapper.
All other trademarks mentioned herein belong to their respective owners.
Please see credits for attibutions and further copyright information.

  Follow gcmap on Facebook Follow gcmap on Twitter Follow gcmap on Google+ GCmap on LinkedIn

hCard Microformat

Geo Microformat